createdAt,value
2023-01-01T00:01:47.254Z,96764.53
2023-01-01T00:04:16.955Z,96754.59
2023-01-01T00:06:46.387Z,96761.41
2023-01-01T00:09:31.795Z,96719.66
2023-01-01T00:12:01.076Z,96770.38
2023-01-01T00:14:29.225Z,96771.56
2023-01-01T00:16:59.679Z,96773.06
2023-01-01T00:19:27.754Z,96770.53
2023-01-01T00:21:56.797Z,96769.44
2023-01-01T00:24:24.661Z,96768.63
2023-01-01T00:26:52.493Z,96763.41
2023-01-01T00:29:21.746Z,96778.81
2023-01-01T00:31:51.001Z,96783.25
2023-01-01T00:34:18.911Z,96783.25
2023-01-01T00:36:46.792Z,96787.16
2023-01-01T00:39:14.682Z,96779.53
2023-01-01T00:41:42.547Z,96783.25
2023-01-01T00:44:10.410Z,96772.66
2023-01-01T00:46:39.736Z,96790.56
2023-01-01T00:49:07.874Z,96746.34
2023-01-01T00:51:37.274Z,96795.53
2023-01-01T00:54:05.527Z,96779.69
2023-01-01T00:56:33.844Z,96768.75
2023-01-01T00:59:02.034Z,96785.91
2023-01-01T01:01:30.083Z,96776.22
2023-01-01T01:03:59.384Z,96775.59
2023-01-01T01:06:27.333Z,96776.88
2023-01-01T01:08:55.231Z,96776.59
2023-01-01T01:11:26.814Z,96765.13
2023-01-01T01:13:56.659Z,96783.97
2023-01-01T01:16:26.861Z,96780.78
2023-01-01T01:18:57.623Z,96769.09
2023-01-01T01:21:29.081Z,96744.34
2023-01-01T01:23:59.874Z,96756.66
2023-01-01T01:26:30.235Z,96775.81
2023-01-01T01:28:58.656Z,96775.50
2023-01-01T01:31:30.221Z,96766.63
2023-01-01T01:33:58.405Z,96774.06
2023-01-01T01:36:27.902Z,96776.06
2023-01-01T01:38:55.998Z,96734.59
2023-01-01T01:41:29.257Z,96755.22
2023-01-01T01:44:00.233Z,96763.34
2023-01-01T01:46:33.804Z,96769.50
2023-01-01T01:49:06.857Z,96780.16
2023-01-01T01:51:41.870Z,96770.78
2023-01-01T01:54:14.658Z,96712.22
2023-01-01T01:56:47.849Z,96747.19
2023-01-01T01:59:17.270Z,96779.53
2023-01-01T02:01:59.077Z,96785.94
2023-01-01T02:04:27.347Z,96686.06
2023-01-01T02:06:56.831Z,96764.81
2023-01-01T02:09:24.875Z,96777.28
2023-01-01T02:11:52.781Z,96783.16
2023-01-01T02:14:20.740Z,96786.97
2023-01-01T02:16:52.281Z,96695.38
2023-01-01T02:19:34.135Z,96759.72
2023-01-01T02:22:15.281Z,96791.09
2023-01-01T02:24:55.808Z,96789.91
2023-01-01T02:27:36.225Z,96791.47
2023-01-01T02:30:08.624Z,96788.22
2023-01-01T02:32:42.001Z,96772.72
2023-01-01T02:35:33.260Z,96789.94
2023-01-01T02:38:04.894Z,96734.16
2023-01-01T02:40:37.094Z,96770.41
2023-01-01T02:43:07.113Z,96785.56
2023-01-01T02:45:36.560Z,96788.91
2023-01-01T02:48:06.399Z,96788.91
2023-01-01T02:50:36.167Z,96778.19
2023-01-01T02:53:21.290Z,96782.38
2023-01-01T02:55:59.665Z,96734.63
2023-01-01T02:58:53.945Z,96777.53
2023-01-01T03:01:31.073Z,96763.75
2023-01-01T03:04:08.810Z,96759.06
2023-01-01T03:06:43.989Z,96761.25
2023-01-01T03:09:24.410Z,96771.94
2023-01-01T03:11:58.995Z,96777.44
2023-01-01T03:14:33.346Z,96763.72
2023-01-01T03:17:06.509Z,96782.81
2023-01-01T03:19:38.721Z,96783.28
2023-01-01T03:22:10.092Z,96795.16
2023-01-01T03:24:43.403Z,96746.63
2023-01-01T03:27:15.958Z,96765.06
2023-01-01T03:29:45.014Z,96776.81
2023-01-01T03:32:21.391Z,96777.06
2023-01-01T03:34:54.671Z,96772.47
2023-01-01T03:37:28.274Z,96791.38
2023-01-01T03:40:00.541Z,96780.75
2023-01-01T03:42:34.403Z,96747.59
2023-01-01T03:45:06.400Z,96782.50
2023-01-01T03:47:37.548Z,96776.69
2023-01-01T03:50:07.389Z,96792.06
2023-01-01T03:52:57.177Z,96783.53
2023-01-01T03:55:32.463Z,96764.63
2023-01-01T03:58:04.922Z,96789.41
2023-01-01T04:00:36.265Z,96792.31
2023-01-01T04:03:09.364Z,96786.38
2023-01-01T04:05:40.032Z,96727.97
2023-01-01T04:08:09.153Z,96750.72
2023-01-01T04:10:40.545Z,96786.44
2023-01-01T04:13:08.823Z,96775.06
2023-01-01T04:15:37.153Z,96777.94
2023-01-01T04:18:06.728Z,96786.59
2023-01-01T04:20:36.940Z,96794.44
2023-01-01T04:23:07.481Z,96801.13
2023-01-01T04:25:35.728Z,96800.97
2023-01-01T04:28:04.379Z,96799.22
2023-01-01T04:33:05.801Z,96796.06
2023-01-01T04:35:33.644Z,96796.13
2023-01-01T04:38:03.816Z,96805.81
2023-01-01T04:40:31.671Z,96797.66
2023-01-01T04:42:59.558Z,96800.50
2023-01-01T04:45:27.495Z,96802.97
2023-01-01T04:47:55.408Z,96813.50
2023-01-01T04:50:24.846Z,96803.47
2023-01-01T04:52:54.072Z,96802.28
2023-01-01T04:55:21.958Z,96772.13
2023-01-01T04:57:49.780Z,96801.16
2023-01-01T05:00:18.658Z,96803.16
2023-01-01T05:02:46.787Z,96800.88
2023-01-01T05:05:14.883Z,96800.16
2023-01-01T05:07:45.331Z,96808.78
2023-01-01T05:10:13.384Z,96802.75
2023-01-01T05:12:41.231Z,96805.25
2023-01-01T05:15:10.111Z,96787.63
2023-01-01T05:17:38.516Z,96813.25
2023-01-01T05:20:07.183Z,96810.84
2023-01-01T05:22:35.056Z,96810.78
2023-01-01T05:25:04.494Z,96816.03
2023-01-01T05:27:32.364Z,96806.72
2023-01-01T05:30:00.348Z,96818.81
2023-01-01T05:32:28.415Z,96607.66
2023-01-01T05:34:56.541Z,96810.31
2023-01-01T05:37:24.386Z,96821.84
2023-01-01T05:39:52.209Z,96827.97
2023-01-01T05:42:21.407Z,96822.00
2023-01-01T05:44:49.272Z,96815.16
2023-01-01T05:47:18.671Z,96817.34
2023-01-01T05:49:47.011Z,96819.50
2023-01-01T05:52:14.918Z,96819.78
2023-01-01T05:54:42.832Z,96811.72
2023-01-01T05:57:10.655Z,96819.13
2023-01-01T05:59:39.857Z,96808.84
2023-01-01T06:02:07.742Z,96815.91
2023-01-01T06:04:35.706Z,96817.03
2023-01-01T06:07:03.564Z,96823.97
2023-01-01T06:09:31.438Z,96804.19
2023-01-01T06:11:59.346Z,96822.28
2023-01-01T06:14:27.206Z,96828.38
2023-01-01T06:16:57.745Z,96823.38
2023-01-01T06:19:28.037Z,96829.38
2023-01-01T06:21:55.992Z,96831.66
2023-01-01T06:24:23.854Z,96841.25
2023-01-01T06:26:54.945Z,96840.22
2023-01-01T06:29:26.042Z,96835.41
2023-01-01T06:31:54.036Z,96825.59
2023-01-01T06:34:23.264Z,96833.31
2023-01-01T06:36:51.081Z,96843.97
2023-01-01T06:39:18.958Z,96847.31
2023-01-01T06:41:46.906Z,96850.25
2023-01-01T06:44:14.824Z,96850.66
2023-01-01T06:46:42.670Z,96805.41
2023-01-01T06:49:12.772Z,96865.09
2023-01-01T06:51:44.053Z,96857.78
2023-01-01T06:54:12.215Z,96859.22
2023-01-01T06:56:40.108Z,96863.72
2023-01-01T06:59:09.843Z,96821.38
2023-01-01T07:01:44.136Z,96856.03
2023-01-01T07:04:14.816Z,96871.59
2023-01-01T07:06:49.090Z,96866.88
2023-01-01T07:09:23.326Z,96871.88
2023-01-01T07:11:53.385Z,96849.78
2023-01-01T07:14:24.771Z,96860.38
2023-01-01T07:16:59.907Z,96867.31
2023-01-01T07:19:27.787Z,96868.72
2023-01-01T07:21:57.070Z,96846.41
2023-01-01T07:24:24.939Z,96868.63
2023-01-01T07:26:53.523Z,96863.22
2023-01-01T07:29:21.703Z,96869.31
2023-01-01T07:31:52.345Z,96851.34
2023-01-01T07:34:20.667Z,96868.69
2023-01-01T07:36:50.170Z,96864.97
2023-01-01T07:39:24.427Z,96876.94
2023-01-01T07:41:59.890Z,96879.41
2023-01-01T07:44:31.140Z,96864.56
2023-01-01T07:47:05.011Z,96868.13
2023-01-01T07:49:33.229Z,96869.41
2023-01-01T07:52:01.600Z,96861.09
2023-01-01T07:54:35.165Z,96865.94
2023-01-01T07:57:09.451Z,96864.91
2023-01-01T07:59:37.639Z,96865.97
2023-01-01T08:02:06.800Z,96863.69
2023-01-01T08:04:35.571Z,96795.00
2023-01-01T08:07:08.194Z,96847.63
2023-01-01T08:09:38.617Z,96870.78
2023-01-01T08:12:08.653Z,96868.09
2023-01-01T08:14:36.710Z,96887.72
2023-01-01T08:17:06.065Z,96879.97
2023-01-01T08:19:33.892Z,96839.22
2023-01-01T08:22:02.120Z,96834.38
2023-01-01T08:24:30.311Z,96882.09
2023-01-01T08:26:59.793Z,96869.19
2023-01-01T08:29:30.040Z,96883.16
2023-01-01T08:31:59.604Z,96876.13
2023-01-01T08:34:29.932Z,96874.47
2023-01-01T08:36:57.928Z,96866.28
2023-01-01T08:39:26.222Z,96874.53
2023-01-01T08:41:54.199Z,96879.69
2023-01-01T08:44:24.744Z,96884.81
2023-01-01T08:46:55.738Z,96885.06
2023-01-01T08:49:25.040Z,96883.44
2023-01-01T08:52:00.151Z,96865.97
2023-01-01T08:54:33.431Z,96871.25
2023-01-01T08:57:01.362Z,96872.78
2023-01-01T08:59:31.155Z,96870.56
2023-01-01T09:02:01.551Z,96872.75
2023-01-01T09:04:32.268Z,96865.44
2023-01-01T09:07:00.151Z,96824.47
2023-01-01T09:09:31.703Z,96856.88
2023-01-01T09:12:07.687Z,96854.78
2023-01-01T09:14:36.939Z,96855.94
2023-01-01T09:17:04.871Z,96853.38
2023-01-01T09:19:32.843Z,96762.59
2023-01-01T09:22:00.700Z,96834.81
2023-01-01T09:24:28.683Z,96834.53
2023-01-01T09:26:56.555Z,96817.59
2023-01-01T09:29:24.400Z,96834.41
2023-01-01T09:31:53.770Z,96827.13
2023-01-01T09:34:21.699Z,96826.72
2023-01-01T09:36:49.535Z,96828.63
2023-01-01T09:39:17.729Z,96827.75
2023-01-01T09:41:58.878Z,96820.25
2023-01-01T09:44:44.207Z,96679.41
2023-01-01T09:47:23.262Z,96812.94
2023-01-01T09:49:53.731Z,96824.94
2023-01-01T09:52:22.013Z,96809.09
2023-01-01T09:54:55.147Z,96818.22
2023-01-01T09:57:29.089Z,96808.28
2023-01-01T09:59:57.365Z,96794.69
2023-01-01T10:02:39.459Z,96804.34
2023-01-01T10:05:22.465Z,96750.94
2023-01-01T10:07:55.701Z,96749.88
2023-01-01T10:10:39.757Z,96763.78
2023-01-01T10:13:50.612Z,96744.97
2023-01-01T10:16:30.523Z,96725.06
2023-01-01T10:19:04.148Z,96788.69
2023-01-01T10:21:35.118Z,96782.38
2023-01-01T10:24:12.163Z,96767.59
2023-01-01T10:26:42.130Z,96770.59
2023-01-01T10:29:16.932Z,96773.56
2023-01-01T10:31:49.233Z,96768.56
2023-01-01T10:34:23.503Z,96770.50
2023-01-01T10:36:54.950Z,96768.38
2023-01-01T10:39:23.473Z,96753.59
2023-01-01T10:41:52.016Z,96730.50
2023-01-01T10:44:31.149Z,96751.56
2023-01-01T10:47:01.033Z,96747.75
2023-01-01T10:49:30.323Z,96748.00
2023-01-01T10:52:03.789Z,96731.66
2023-01-01T10:54:35.882Z,96650.53
2023-01-01T10:57:15.901Z,96730.22
2023-01-01T10:59:51.809Z,96726.69
2023-01-01T11:02:24.291Z,96713.22
2023-01-01T11:05:17.628Z,96705.84
2023-01-01T11:07:49.954Z,96716.47
2023-01-01T11:10:20.885Z,96674.69
2023-01-01T11:13:06.477Z,96718.31
2023-01-01T11:15:38.601Z,96714.78
2023-01-01T11:18:08.660Z,96675.50
2023-01-01T11:20:38.092Z,96709.22
2023-01-01T11:23:20.944Z,96686.13
2023-01-01T11:25:59.460Z,96708.50
2023-01-01T11:28:28.686Z,96696.22
2023-01-01T11:31:02.829Z,96691.59
2023-01-01T11:33:35.042Z,96699.69
2023-01-01T11:36:06.236Z,96666.50
2023-01-01T11:38:35.773Z,96676.59
2023-01-01T11:41:06.952Z,96681.69
2023-01-01T11:43:41.121Z,96687.63
2023-01-01T11:46:11.590Z,96684.13
2023-01-01T11:48:44.427Z,96631.75
2023-01-01T11:51:30.538Z,96667.88
2023-01-01T11:54:21.652Z,96668.16
2023-01-01T11:56:53.744Z,96668.78
2023-01-01T11:59:26.478Z,96669.78
2023-01-01T12:01:58.349Z,96515.69
2023-01-01T12:04:32.605Z,96601.50
2023-01-01T12:07:07.174Z,96658.31
2023-01-01T12:09:41.441Z,96659.25
2023-01-01T12:12:14.331Z,96659.53
2023-01-01T12:14:49.220Z,96658.78
2023-01-01T12:17:23.795Z,96631.47
2023-01-01T12:20:01.433Z,96652.56
2023-01-01T12:22:31.117Z,96647.94
2023-01-01T12:24:59.456Z,96635.44
2023-01-01T12:27:43.325Z,96634.50
2023-01-01T12:30:20.451Z,96633.94
2023-01-01T12:33:08.786Z,96629.72
2023-01-01T12:35:52.748Z,96638.28
2023-01-01T12:38:38.514Z,96623.91
2023-01-01T12:41:13.475Z,96638.72
2023-01-01T12:43:49.960Z,96628.44
2023-01-01T12:46:45.170Z,96629.78
2023-01-01T12:49:27.387Z,96631.44
2023-01-01T12:52:13.728Z,96639.28
2023-01-01T12:55:15.676Z,96633.94
2023-01-01T12:57:49.752Z,96637.19
2023-01-01T13:00:22.784Z,96617.09
2023-01-01T13:02:53.668Z,96624.94
2023-01-01T13:05:25.239Z,96624.28
2023-01-01T13:08:00.183Z,96603.94
2023-01-01T13:10:34.358Z,96623.09
2023-01-01T13:13:02.946Z,96627.97
2023-01-01T13:15:48.925Z,96617.78
2023-01-01T13:18:26.457Z,96626.44
2023-01-01T13:21:06.786Z,96649.50
2023-01-01T13:23:48.595Z,96629.44
2023-01-01T13:26:38.104Z,96594.97
2023-01-01T13:29:33.474Z,96627.16
2023-01-01T13:32:06.719Z,96624.84
2023-01-01T13:34:43.062Z,96618.28
2023-01-01T13:37:30.754Z,96615.22
2023-01-01T13:39:59.793Z,96620.88
2023-01-01T13:42:52.427Z,96623.06
2023-01-01T13:46:09.284Z,96610.59
2023-01-01T13:48:31.715Z,96618.75
2023-01-01T13:52:02.884Z,96584.84
2023-01-01T13:54:31.646Z,96619.38
2023-01-01T13:57:02.625Z,96628.22
2023-01-01T13:59:54.510Z,96622.31
2023-01-01T14:02:27.099Z,96628.16
2023-01-01T14:04:58.825Z,96630.81
2023-01-01T14:07:51.063Z,96630.38
2023-01-01T14:10:29.533Z,96632.31
2023-01-01T14:13:03.956Z,96626.72
2023-01-01T14:15:34.714Z,96624.16
2023-01-01T14:18:05.341Z,96583.00
2023-01-01T14:20:37.370Z,96575.31
2023-01-01T14:23:10.123Z,96628.41
2023-01-01T14:25:38.749Z,96619.75
2023-01-01T14:28:07.982Z,96619.66
2023-01-01T14:30:37.262Z,96634.78
2023-01-01T14:33:05.047Z,96626.75
2023-01-01T14:35:32.959Z,96627.56
2023-01-01T14:38:17.920Z,96626.81
2023-01-01T14:40:47.199Z,96630.22
2023-01-01T14:43:15.332Z,96577.81
2023-01-01T14:45:45.305Z,96627.59
2023-01-01T14:48:19.888Z,96634.25
2023-01-01T14:50:50.919Z,96639.91
2023-01-01T14:53:22.323Z,96639.34
2023-01-01T14:55:51.164Z,96625.97
2023-01-01T14:58:22.950Z,96639.47
2023-01-01T15:00:52.749Z,96542.69
2023-01-01T15:03:21.956Z,96638.81
2023-01-01T15:06:00.033Z,96583.28
2023-01-01T15:08:28.318Z,96655.44
2023-01-01T15:10:57.795Z,96544.19
2023-01-01T15:13:27.655Z,96627.75
2023-01-01T15:15:57.971Z,96641.25
2023-01-01T15:18:42.467Z,96634.44
2023-01-01T15:21:16.135Z,96641.44
2023-01-01T15:23:52.373Z,96640.13
2023-01-01T15:26:30.596Z,96642.44
2023-01-01T15:29:00.575Z,96601.41
2023-01-01T15:31:38.708Z,96604.13
2023-01-01T15:34:07.141Z,96645.03
2023-01-01T15:36:35.093Z,96643.50
2023-01-01T15:39:03.307Z,96654.69
2023-01-01T15:41:45.418Z,96659.59
2023-01-01T15:44:21.124Z,96654.19
2023-01-01T15:46:52.799Z,96654.19
2023-01-01T15:49:26.697Z,96659.09
2023-01-01T15:51:57.716Z,96669.03
2023-01-01T15:54:26.239Z,96665.50
2023-01-01T15:56:54.565Z,96655.25
2023-01-01T15:59:29.553Z,96656.16
2023-01-01T16:02:13.196Z,96662.13
2023-01-01T16:04:45.834Z,96660.50
2023-01-01T16:07:19.110Z,96659.50
2023-01-01T16:09:50.531Z,96672.78
2023-01-01T16:12:21.741Z,96480.03
2023-01-01T16:14:49.705Z,96663.25
2023-01-01T16:17:21.388Z,96665.44
2023-01-01T16:19:51.587Z,96669.72
2023-01-01T16:22:20.547Z,96666.38
2023-01-01T16:24:48.445Z,96684.28
2023-01-01T16:27:16.558Z,96666.28
2023-01-01T16:29:47.298Z,96670.94
2023-01-01T16:32:19.508Z,96671.94
2023-01-01T16:34:47.448Z,96671.03
2023-01-01T16:37:16.371Z,96671.81
2023-01-01T16:39:44.240Z,96670.94
2023-01-01T16:42:14.002Z,96676.47
2023-01-01T16:44:42.732Z,96676.31
2023-01-01T16:47:10.838Z,96640.63
2023-01-01T16:49:40.068Z,96683.94
2023-01-01T16:52:08.222Z,96675.94
2023-01-01T16:54:36.212Z,96664.84
2023-01-01T16:57:04.226Z,96684.44
2023-01-01T16:59:32.062Z,96679.44
2023-01-01T17:01:59.974Z,96689.34
2023-01-01T17:04:28.269Z,96674.56
2023-01-01T17:06:57.539Z,96673.84
2023-01-01T17:09:25.415Z,96691.13
2023-01-01T17:11:53.373Z,96690.66
2023-01-01T17:14:21.387Z,96640.91
2023-01-01T17:16:51.811Z,96690.97
2023-01-01T17:19:21.401Z,96675.75
2023-01-01T17:21:50.003Z,96696.44
2023-01-01T17:24:20.817Z,96698.38
2023-01-01T17:26:52.733Z,96701.16
2023-01-01T17:29:20.777Z,96698.22
2023-01-01T17:31:48.856Z,96696.38
2023-01-01T17:34:18.247Z,96691.06
2023-01-01T17:36:46.995Z,96652.31
2023-01-01T17:39:18.331Z,96701.28
2023-01-01T17:41:47.539Z,96702.44
2023-01-01T17:44:16.073Z,96652.97
2023-01-01T17:46:48.782Z,96704.31
2023-01-01T17:49:24.443Z,96691.53
2023-01-01T17:51:56.640Z,96689.63
2023-01-01T17:54:24.932Z,96707.03
2023-01-01T17:56:54.315Z,96707.03
2023-01-01T17:59:22.805Z,96703.88
2023-01-01T18:01:50.772Z,96714.06
2023-01-01T18:04:19.417Z,96717.28
2023-01-01T18:06:54.209Z,96713.56
2023-01-01T18:09:23.028Z,96708.22
2023-01-01T18:11:51.277Z,96708.81
2023-01-01T18:14:24.643Z,96712.00
2023-01-01T18:16:53.206Z,96697.91
2023-01-01T18:19:21.384Z,96713.41
2023-01-01T18:21:51.590Z,96717.97
2023-01-01T18:24:19.737Z,96713.41
2023-01-01T18:26:47.713Z,96722.56
2023-01-01T18:29:16.209Z,96706.69
2023-01-01T18:31:48.341Z,96709.59
2023-01-01T18:34:16.285Z,96706.13
2023-01-01T18:36:47.000Z,96706.41
2023-01-01T18:39:17.921Z,96692.03
2023-01-01T18:42:12.388Z,96714.25
2023-01-01T18:44:41.340Z,96709.69
2023-01-01T18:47:14.853Z,96522.13
2023-01-01T18:49:47.916Z,96699.19
2023-01-01T18:52:22.844Z,96658.22
2023-01-01T18:54:59.025Z,96703.97
2023-01-01T18:57:29.528Z,96702.94
2023-01-01T18:59:59.542Z,96681.03
2023-01-01T19:02:37.931Z,96693.38
2023-01-01T19:05:19.109Z,96641.44
2023-01-01T19:10:40.591Z,96699.81
2023-01-01T19:13:19.503Z,96609.38
2023-01-01T19:15:49.472Z,96691.50
2023-01-01T19:18:20.641Z,96656.97
2023-01-01T19:20:51.835Z,96671.94
2023-01-01T19:23:23.756Z,96701.16
2023-01-01T19:25:52.664Z,96696.63
2023-01-01T19:28:37.718Z,96702.78
2023-01-01T19:31:07.152Z,96700.41
2023-01-01T19:33:36.500Z,96636.69
2023-01-01T19:36:04.546Z,96695.56
2023-01-01T19:38:32.401Z,96714.63
2023-01-01T19:41:00.240Z,96721.59
2023-01-01T19:43:28.174Z,96713.56
2023-01-01T19:45:56.033Z,96719.69
2023-01-01T19:48:24.101Z,96725.31
2023-01-01T19:50:53.366Z,96729.63
2023-01-01T19:53:21.268Z,96730.97
2023-01-01T19:55:49.458Z,96676.25
2023-01-01T19:58:19.798Z,96701.19
2023-01-01T20:00:47.702Z,96737.66
2023-01-01T20:06:05.436Z,96710.00
2023-01-01T20:08:33.493Z,96722.31
2023-01-01T20:11:01.914Z,96718.31
2023-01-01T20:13:31.228Z,96722.66
2023-01-01T20:15:59.316Z,96722.91
2023-01-01T20:18:27.231Z,96723.19
2023-01-01T20:21:12.684Z,96722.38
2023-01-01T20:23:43.403Z,96715.97
2023-01-01T20:26:11.402Z,96724.81
2023-01-01T20:28:56.804Z,96730.97
2023-01-01T20:31:24.762Z,96734.91
2023-01-01T20:33:52.654Z,96730.31
2023-01-01T20:36:37.784Z,96734.09
2023-01-01T20:39:06.997Z,96737.56
2023-01-01T20:41:34.845Z,96729.03
2023-01-01T20:44:02.705Z,96740.03
2023-01-01T20:46:30.971Z,96742.19
2023-01-01T20:48:59.614Z,96734.97
2023-01-01T20:51:27.850Z,96735.22
2023-01-01T20:53:55.940Z,96559.22
2023-01-01T20:56:25.366Z,96651.06
2023-01-01T20:59:00.144Z,96729.28
2023-01-01T21:01:32.804Z,96724.16
2023-01-01T21:04:00.748Z,96736.97
2023-01-01T21:06:28.723Z,96733.00
2023-01-01T21:08:56.646Z,96727.84
2023-01-01T21:11:26.037Z,96744.16
2023-01-01T21:13:53.944Z,96741.78
2023-01-01T21:16:25.884Z,96745.50
2023-01-01T21:18:53.738Z,96749.50
2023-01-01T21:21:23.585Z,96752.69
2023-01-01T21:23:53.784Z,96753.22
2023-01-01T21:26:30.080Z,96755.88
2023-01-01T21:29:01.641Z,96762.22
2023-01-01T21:31:38.243Z,96755.78
2023-01-01T21:34:18.110Z,96740.47
2023-01-01T21:36:46.223Z,96752.00
2023-01-01T21:39:15.324Z,96732.03
2023-01-01T21:41:44.540Z,96735.44
2023-01-01T21:44:15.536Z,96767.63
2023-01-01T21:46:47.121Z,96746.66
2023-01-01T21:49:20.508Z,96739.75
2023-01-01T21:51:52.320Z,96741.72
2023-01-01T21:54:23.857Z,96698.22
2023-01-01T21:56:58.746Z,96664.97
2023-01-01T21:59:38.512Z,96743.06
2023-01-01T22:02:35.645Z,96698.84
2023-01-01T22:05:30.135Z,96744.69
2023-01-01T22:07:59.404Z,96735.81
2023-01-01T22:10:31.019Z,96713.72
2023-01-01T22:13:01.549Z,96750.97
2023-01-01T22:15:40.819Z,96729.50
2023-01-01T22:18:19.736Z,96749.91
2023-01-01T22:20:48.650Z,96728.47
2023-01-01T22:23:35.009Z,96736.47
2023-01-01T22:26:05.755Z,96728.63
2023-01-01T22:28:42.748Z,96731.75
2023-01-01T22:31:14.941Z,96733.38
2023-01-01T22:33:47.119Z,96752.63
2023-01-01T22:36:17.970Z,96746.72
2023-01-01T22:38:46.453Z,96735.31
2023-01-01T22:41:15.102Z,96740.44
2023-01-01T22:43:47.800Z,96733.25
2023-01-01T22:46:27.644Z,96746.97
2023-01-01T22:49:00.142Z,96739.56
2023-01-01T22:51:41.012Z,96725.50
2023-01-01T22:54:08.856Z,96741.06
2023-01-01T22:56:36.725Z,96728.75
2023-01-01T22:59:05.996Z,96726.09
2023-01-01T23:01:33.964Z,96733.03
2023-01-01T23:04:02.370Z,96722.63
2023-01-01T23:06:30.447Z,96724.66
2023-01-01T23:08:58.422Z,96723.72
2023-01-01T23:11:26.647Z,96731.53
2023-01-01T23:14:12.037Z,96726.88
2023-01-01T23:16:41.316Z,96732.16
2023-01-01T23:19:09.232Z,96737.16
2023-01-01T23:21:37.619Z,96737.91
2023-01-01T23:24:09.829Z,96707.66
2023-01-01T23:26:38.381Z,96729.53
2023-01-01T23:29:07.463Z,96720.13
2023-01-01T23:31:35.711Z,96733.19
2023-01-01T23:34:11.821Z,96692.88
2023-01-01T23:36:40.754Z,96732.56
2023-01-01T23:39:12.628Z,96731.53
2023-01-01T23:41:59.965Z,96730.00
2023-01-01T23:45:24.879Z,96263.66
2023-01-01T23:48:16.929Z,96705.34
2023-01-01T23:54:04.483Z,96725.25
2023-01-01T23:56:55.777Z,96697.59
2023-01-01T23:59:45.408Z,96724.28
